createdAt,value
2023-02-28T00:00:30.119Z,17.74
2023-02-28T00:01:32.848Z,17.44
2023-02-28T00:02:34.855Z,16.98
2023-02-28T00:03:36.715Z,17.75
2023-02-28T00:04:38.578Z,17.79
2023-02-28T00:05:40.467Z,17.51
2023-02-28T00:06:43.055Z,17.38
2023-02-28T00:07:44.984Z,17.45
2023-02-28T00:08:46.898Z,17.46
2023-02-28T00:09:48.962Z,17.74
2023-02-28T00:10:50.762Z,17.67
2023-02-28T00:11:52.750Z,17.71
2023-02-28T00:12:57.955Z,17.59
2023-02-28T00:14:00.149Z,17.72
2023-02-28T00:15:03.380Z,17.78
2023-02-28T00:16:11.253Z,17.47
2023-02-28T00:17:13.133Z,17.74
2023-02-28T00:18:15.054Z,16.92
2023-02-28T00:19:16.892Z,16.82
2023-02-28T00:20:19.271Z,17.86
2023-02-28T00:21:21.499Z,17.66
2023-02-28T00:22:24.143Z,16.90
2023-02-28T00:23:26.761Z,17.68
2023-02-28T00:24:28.696Z,17.52
2023-02-28T00:25:30.620Z,17.46
2023-02-28T00:26:32.476Z,16.72
2023-02-28T00:27:36.344Z,17.83
2023-02-28T00:28:39.876Z,17.69
2023-02-28T00:29:42.114Z,16.84
2023-02-28T00:30:46.233Z,17.58
2023-02-28T00:31:48.122Z,17.30
2023-02-28T00:32:51.711Z,17.53
2023-02-28T00:33:53.597Z,17.33
2023-02-28T00:34:56.995Z,17.49
2023-02-28T00:36:07.400Z,17.83
2023-02-28T00:37:15.171Z,17.71
2023-02-28T00:38:17.070Z,17.85
2023-02-28T00:39:19.069Z,17.57
2023-02-28T00:40:20.897Z,16.98
2023-02-28T00:41:22.777Z,16.90
2023-02-28T00:42:25.286Z,17.63
2023-02-28T00:43:27.107Z,17.22
2023-02-28T00:44:29.685Z,17.79
2023-02-28T00:45:31.882Z,16.79
2023-02-28T00:46:33.878Z,17.78
2023-02-28T00:47:35.908Z,17.37
2023-02-28T00:48:38.215Z,17.40
2023-02-28T00:49:40.070Z,16.76
2023-02-28T00:50:41.878Z,17.67
2023-02-28T00:51:43.771Z,17.72
2023-02-28T00:52:46.014Z,17.64
2023-02-28T00:53:49.788Z,17.36
2023-02-28T00:54:52.403Z,17.49
2023-02-28T00:55:54.503Z,17.76
2023-02-28T00:56:56.441Z,17.76
2023-02-28T00:57:58.341Z,17.52
2023-02-28T00:59:00.805Z,17.44
2023-02-28T01:00:03.190Z,17.37
2023-02-28T01:01:05.362Z,17.47
2023-02-28T01:02:07.421Z,17.46
2023-02-28T01:03:09.250Z,17.50
2023-02-28T01:04:12.313Z,16.75
2023-02-28T01:05:14.202Z,17.73
2023-02-28T01:06:16.081Z,17.20
2023-02-28T01:07:18.004Z,17.13
2023-02-28T01:08:20.546Z,16.58
2023-02-28T01:09:22.450Z,17.23
2023-02-28T01:10:24.476Z,17.73
2023-02-28T01:11:26.392Z,17.45
2023-02-28T01:12:30.825Z,17.45
2023-02-28T01:13:33.121Z,17.49
2023-02-28T01:14:35.702Z,16.59
2023-02-28T01:15:37.961Z,17.72
2023-02-28T01:16:40.511Z,17.61
2023-02-28T01:17:42.313Z,17.33
2023-02-28T01:18:44.835Z,17.70
2023-02-28T01:19:46.807Z,16.70
2023-02-28T01:20:49.748Z,17.37
2023-02-28T01:21:52.088Z,17.31
2023-02-28T01:22:53.986Z,16.82
2023-02-28T01:23:58.837Z,17.41
2023-02-28T01:25:00.646Z,16.71
2023-02-28T01:26:12.434Z,16.80
2023-02-28T01:27:15.305Z,17.36
2023-02-28T01:28:17.635Z,16.76
2023-02-28T01:29:19.428Z,17.41
2023-02-28T01:30:21.467Z,16.78
2023-02-28T01:31:23.729Z,17.30
2023-02-28T01:32:25.779Z,17.36
2023-02-28T01:33:27.694Z,17.38
2023-02-28T01:34:29.609Z,16.71
2023-02-28T01:35:37.264Z,17.40
2023-02-28T01:36:39.329Z,17.46
2023-02-28T01:37:41.219Z,17.35
2023-02-28T01:38:43.943Z,17.31
2023-02-28T01:39:45.814Z,16.93
2023-02-28T01:40:47.854Z,17.41
2023-02-28T01:41:49.688Z,17.42
2023-02-28T01:42:51.608Z,17.32
2023-02-28T01:43:56.703Z,17.67
2023-02-28T01:45:17.153Z,17.67
2023-02-28T01:46:19.137Z,17.56
2023-02-28T01:47:24.184Z,17.39
2023-02-28T01:48:32.344Z,17.69
2023-02-28T01:49:34.200Z,17.47
2023-02-28T01:50:40.672Z,17.27
2023-02-28T01:51:47.490Z,17.23
2023-02-28T01:52:50.612Z,17.35
2023-02-28T01:53:57.815Z,17.24
2023-02-28T01:55:03.553Z,16.76
2023-02-28T01:56:08.160Z,17.68
2023-02-28T01:57:17.656Z,17.12
2023-02-28T01:58:19.637Z,17.67
2023-02-28T01:59:49.665Z,17.49
2023-02-28T02:00:52.771Z,17.45
2023-02-28T02:01:55.564Z,17.49
2023-02-28T02:03:06.099Z,17.45
2023-02-28T02:04:08.041Z,17.47
2023-02-28T02:05:27.583Z,17.44
2023-02-28T02:06:35.133Z,17.42
2023-02-28T02:07:40.648Z,16.92
2023-02-28T02:08:42.685Z,17.46
2023-02-28T02:09:44.560Z,16.37
2023-02-28T02:11:02.288Z,17.50
2023-02-28T02:12:21.224Z,17.35
2023-02-28T02:13:53.822Z,17.74
2023-02-28T02:15:20.637Z,17.80
2023-02-28T02:17:08.504Z,17.83
2023-02-28T02:18:42.397Z,17.87
2023-02-28T02:20:07.217Z,17.81
2023-02-28T02:21:25.669Z,17.80
2023-02-28T02:22:39.170Z,17.71
2023-02-28T02:23:55.930Z,17.77
2023-02-28T02:25:09.739Z,17.74
2023-02-28T02:27:08.398Z,17.72
2023-02-28T02:28:10.146Z,17.80
2023-02-28T02:30:00.077Z,17.67
2023-02-28T02:31:40.091Z,17.80
2023-02-28T02:33:05.257Z,17.80
2023-02-28T02:34:25.776Z,17.77
2023-02-28T02:35:32.476Z,17.74
2023-02-28T02:36:39.866Z,17.42
2023-02-28T02:38:17.085Z,17.70
2023-02-28T02:39:42.923Z,17.74
2023-02-28T02:40:59.567Z,17.58
2023-02-28T02:42:05.697Z,17.48
2023-02-28T02:43:18.365Z,17.43
2023-02-28T02:44:28.533Z,17.66
2023-02-28T02:45:56.463Z,17.70
2023-02-28T02:47:10.947Z,17.53
2023-02-28T02:48:16.315Z,17.54
2023-02-28T02:49:25.568Z,16.69
2023-02-28T02:50:33.814Z,17.65
2023-02-28T02:51:38.032Z,17.48
2023-02-28T02:52:45.725Z,17.40
2023-02-28T02:53:52.727Z,17.20
2023-02-28T02:54:58.498Z,17.42
2023-02-28T02:56:03.164Z,17.44
2023-02-28T02:57:10.944Z,17.45
2023-02-28T02:58:17.876Z,17.62
2023-02-28T02:59:24.928Z,17.40
2023-02-28T03:00:38.536Z,17.29
2023-02-28T03:01:42.211Z,17.42
2023-02-28T03:02:47.080Z,17.18
2023-02-28T03:03:49.139Z,17.64
2023-02-28T03:05:01.731Z,17.62
2023-02-28T03:06:04.991Z,17.66
2023-02-28T03:07:07.355Z,17.47
2023-02-28T03:08:09.240Z,16.90
2023-02-28T03:09:11.210Z,17.39
2023-02-28T03:10:36.494Z,17.45
2023-02-28T03:11:40.024Z,17.32
2023-02-28T03:12:52.076Z,17.43
2023-02-28T03:14:18.937Z,17.69
2023-02-28T03:15:27.638Z,17.73
2023-02-28T03:16:35.482Z,17.71
2023-02-28T03:17:37.305Z,17.69
2023-02-28T03:19:03.298Z,17.09
2023-02-28T03:20:33.059Z,17.77
2023-02-28T03:22:02.801Z,17.66
2023-02-28T03:23:45.714Z,17.77
2023-02-28T03:25:15.811Z,17.52
2023-02-28T03:26:23.798Z,17.55
2023-02-28T03:27:31.046Z,17.57
2023-02-28T03:28:39.843Z,17.45
2023-02-28T03:29:51.696Z,16.83
2023-02-28T03:31:05.035Z,17.31
2023-02-28T03:32:15.744Z,16.70
2023-02-28T03:33:24.243Z,16.69
2023-02-28T03:34:35.409Z,17.43
2023-02-28T03:35:49.498Z,17.47
2023-02-28T03:37:00.415Z,17.60
2023-02-28T03:38:25.864Z,16.88
2023-02-28T03:39:38.063Z,17.70
2023-02-28T03:40:43.245Z,17.53
2023-02-28T03:41:50.778Z,17.41
2023-02-28T03:43:00.731Z,17.34
2023-02-28T03:44:11.922Z,17.69
2023-02-28T03:45:26.767Z,17.39
2023-02-28T03:46:32.315Z,17.21
2023-02-28T03:47:44.387Z,17.56
2023-02-28T03:48:53.251Z,17.33
2023-02-28T03:49:58.920Z,17.70
2023-02-28T03:51:03.967Z,16.73
2023-02-28T03:52:08.463Z,17.66
2023-02-28T03:53:10.279Z,17.66
2023-02-28T03:54:19.230Z,17.64
2023-02-28T03:55:22.474Z,17.47
2023-02-28T03:56:38.574Z,17.31
2023-02-28T03:57:57.715Z,17.49
2023-02-28T03:59:08.497Z,16.79
2023-02-28T04:00:15.908Z,17.70
2023-02-28T04:01:27.163Z,17.43
2023-02-28T04:02:29.454Z,17.70
2023-02-28T04:03:31.423Z,17.61
2023-02-28T04:04:33.450Z,16.81
2023-02-28T04:05:55.802Z,17.27
2023-02-28T04:07:07.029Z,17.48
2023-02-28T04:08:09.344Z,17.71
2023-02-28T04:10:14.689Z,17.45
2023-02-28T04:11:36.552Z,17.14
2023-02-28T04:12:38.381Z,17.19
2023-02-28T04:13:40.378Z,17.68
2023-02-28T04:14:42.238Z,17.11
2023-02-28T04:15:44.162Z,17.42
2023-02-28T04:16:46.113Z,17.41
2023-02-28T04:17:47.949Z,17.33
2023-02-28T04:18:49.805Z,17.63
2023-02-28T04:19:51.751Z,17.53
2023-02-28T04:20:53.597Z,17.36
2023-02-28T04:21:55.492Z,17.64
2023-02-28T04:22:57.354Z,17.45
2023-02-28T04:24:01.775Z,17.35
2023-02-28T04:25:03.964Z,17.46
2023-02-28T04:26:07.013Z,17.41
2023-02-28T04:27:09.827Z,17.28
2023-02-28T04:28:11.665Z,17.54
2023-02-28T04:29:19.106Z,17.64
2023-02-28T04:30:21.051Z,17.52
2023-02-28T04:31:22.967Z,17.08
2023-02-28T04:32:24.907Z,17.56
2023-02-28T04:33:27.833Z,17.39
2023-02-28T04:34:32.442Z,17.66
2023-02-28T04:35:34.431Z,17.28
2023-02-28T04:36:36.334Z,17.39
2023-02-28T04:37:38.115Z,17.41
2023-02-28T04:38:40.295Z,17.29
2023-02-28T04:39:43.303Z,17.45
2023-02-28T04:40:45.100Z,17.34
2023-02-28T04:41:47.568Z,17.23
2023-02-28T04:42:49.359Z,17.49
2023-02-28T04:43:54.032Z,17.47
2023-02-28T04:44:56.086Z,17.52
2023-02-28T04:45:59.810Z,17.67
2023-02-28T04:47:01.716Z,17.49
2023-02-28T04:48:03.562Z,17.46
2023-02-28T04:49:05.682Z,17.32
2023-02-28T04:50:08.087Z,17.15
2023-02-28T04:51:13.968Z,17.67
2023-02-28T04:52:15.781Z,17.55
2023-02-28T04:53:18.162Z,17.04
2023-02-28T04:54:20.196Z,17.68
2023-02-28T04:55:21.998Z,17.33
2023-02-28T04:56:23.803Z,17.39
2023-02-28T04:57:25.810Z,17.57
2023-02-28T04:58:29.404Z,17.29
2023-02-28T04:59:31.465Z,17.52
2023-02-28T05:00:33.424Z,17.05
2023-02-28T05:01:37.368Z,17.33
2023-02-28T05:02:40.662Z,16.85
2023-02-28T05:03:43.212Z,17.36
2023-02-28T05:04:45.165Z,17.67
2023-02-28T05:05:48.038Z,17.51
2023-02-28T05:06:50.012Z,17.32
2023-02-28T05:07:51.825Z,17.51
2023-02-28T05:08:54.267Z,17.35
2023-02-28T05:09:56.125Z,17.28
2023-02-28T05:10:57.953Z,17.16
2023-02-28T05:11:59.745Z,17.57
2023-02-28T05:13:01.565Z,16.71
2023-02-28T05:14:05.478Z,17.42
2023-02-28T05:15:07.782Z,17.37
2023-02-28T05:16:09.689Z,17.52
2023-02-28T05:17:11.600Z,17.51
2023-02-28T05:18:13.511Z,17.67
2023-02-28T05:19:15.323Z,17.43
2023-02-28T05:20:17.629Z,17.49
2023-02-28T05:21:34.380Z,17.51
2023-02-28T05:22:36.306Z,17.70
2023-02-28T05:23:38.418Z,17.70
2023-02-28T05:24:40.423Z,17.69
2023-02-28T05:25:43.074Z,17.60
2023-02-28T05:26:44.965Z,16.56
2023-02-28T05:27:47.078Z,17.67
2023-02-28T05:28:49.078Z,17.22
2023-02-28T05:29:50.866Z,17.51
2023-02-28T05:30:52.660Z,17.55
2023-02-28T05:31:54.639Z,17.50
2023-02-28T05:32:56.801Z,17.68
2023-02-28T05:33:58.680Z,16.66
2023-02-28T05:35:00.488Z,17.34
2023-02-28T05:36:02.605Z,17.56
2023-02-28T05:37:05.071Z,17.07
2023-02-28T05:38:07.207Z,17.34
2023-02-28T05:39:13.515Z,17.10
2023-02-28T05:40:16.554Z,17.40
2023-02-28T05:41:20.552Z,17.39
2023-02-28T05:42:22.449Z,17.48
2023-02-28T05:43:24.475Z,17.50
2023-02-28T05:44:26.311Z,16.90
2023-02-28T05:45:28.264Z,16.72
2023-02-28T05:46:30.294Z,16.76
2023-02-28T05:47:32.622Z,17.39
2023-02-28T05:48:36.011Z,17.51
2023-02-28T05:49:37.943Z,17.41
2023-02-28T05:50:39.970Z,17.23
2023-02-28T05:51:41.839Z,17.67
2023-02-28T05:52:43.735Z,16.88
2023-02-28T05:53:45.674Z,17.68
2023-02-28T05:54:48.468Z,16.94
2023-02-28T05:55:50.379Z,17.40
2023-02-28T05:56:52.179Z,17.52
2023-02-28T05:57:54.104Z,17.39
2023-02-28T05:58:56.030Z,17.29
2023-02-28T05:59:57.871Z,17.29
2023-02-28T06:01:01.069Z,17.40
2023-02-28T06:02:02.918Z,17.40
2023-02-28T06:03:04.817Z,17.52
2023-02-28T06:04:16.712Z,17.57
2023-02-28T06:05:24.919Z,17.26
2023-02-28T06:06:26.794Z,17.44
2023-02-28T06:07:28.616Z,17.19
2023-02-28T06:08:30.487Z,17.43
2023-02-28T06:09:32.349Z,17.62
2023-02-28T06:10:35.475Z,17.59
2023-02-28T06:11:38.489Z,17.46
2023-02-28T06:12:42.691Z,17.62
2023-02-28T06:13:44.537Z,17.34
2023-02-28T06:14:46.383Z,17.19
2023-02-28T06:15:48.209Z,17.05
2023-02-28T06:16:50.119Z,17.00
2023-02-28T06:17:53.397Z,17.62
2023-02-28T06:18:57.082Z,17.43
2023-02-28T06:19:58.872Z,17.94
2023-02-28T06:21:00.684Z,17.28
2023-02-28T06:22:02.486Z,17.90
2023-02-28T06:23:04.550Z,16.97
2023-02-28T06:24:06.819Z,17.83
2023-02-28T06:25:09.221Z,17.89
2023-02-28T06:26:11.677Z,17.87
2023-02-28T06:27:13.600Z,17.86
2023-02-28T06:28:15.437Z,18.02
2023-02-28T06:29:19.325Z,17.64
2023-02-28T06:30:25.699Z,18.00
2023-02-28T06:31:30.336Z,18.16
2023-02-28T06:32:32.418Z,18.08
2023-02-28T06:33:34.570Z,17.84
2023-02-28T06:34:37.138Z,17.55
2023-02-28T06:35:39.414Z,17.51
2023-02-28T06:36:42.533Z,18.46
2023-02-28T06:37:45.040Z,18.29
2023-02-28T06:38:49.383Z,18.25
2023-02-28T06:39:51.212Z,18.34
2023-02-28T06:40:57.821Z,18.34
2023-02-28T06:41:59.671Z,18.38
2023-02-28T06:43:01.592Z,18.56
2023-02-28T06:44:03.529Z,18.08
2023-02-28T06:45:10.495Z,18.45
2023-02-28T06:46:15.338Z,18.45
2023-02-28T06:47:17.400Z,18.31
2023-02-28T06:48:20.077Z,18.51
2023-02-28T06:49:21.899Z,17.71
2023-02-28T06:50:23.797Z,18.66
2023-02-28T06:51:25.602Z,18.48
2023-02-28T06:52:27.389Z,18.08
2023-02-28T06:53:29.249Z,18.50
2023-02-28T06:54:31.088Z,18.33
2023-02-28T06:55:32.885Z,18.66
2023-02-28T06:56:34.762Z,18.72
2023-02-28T06:57:37.240Z,18.59
2023-02-28T06:58:40.286Z,18.62
2023-02-28T06:59:42.180Z,18.35
2023-02-28T07:00:44.908Z,18.68
2023-02-28T07:01:47.167Z,18.92
2023-02-28T07:02:49.180Z,18.27
2023-02-28T07:03:53.364Z,17.91
2023-02-28T07:04:55.675Z,18.94
2023-02-28T07:05:57.576Z,18.66
2023-02-28T07:06:59.515Z,18.73
2023-02-28T07:08:01.530Z,18.59
2023-02-28T07:09:05.076Z,18.89
2023-02-28T07:10:07.296Z,18.61
2023-02-28T07:11:09.146Z,18.59
2023-02-28T07:12:11.369Z,18.72
2023-02-28T07:13:13.234Z,18.14
2023-02-28T07:14:15.016Z,18.34
2023-02-28T07:15:17.008Z,18.70
2023-02-28T07:16:19.366Z,19.00
2023-02-28T07:17:21.377Z,18.32
2023-02-28T07:18:23.432Z,19.00
2023-02-28T07:19:25.485Z,18.85
2023-02-28T07:20:27.412Z,18.80
2023-02-28T07:21:29.545Z,18.78
2023-02-28T07:22:31.506Z,18.80
2023-02-28T07:23:33.489Z,18.10
2023-02-28T07:24:35.374Z,18.70
2023-02-28T07:25:37.171Z,18.74
2023-02-28T07:26:39.028Z,18.37
2023-02-28T07:27:42.253Z,18.65
2023-02-28T07:28:45.591Z,18.32
2023-02-28T07:29:47.847Z,18.65
2023-02-28T07:30:49.748Z,18.65
2023-02-28T07:31:54.245Z,18.57
2023-02-28T07:32:57.294Z,18.66
2023-02-28T07:33:59.522Z,18.80
2023-02-28T07:35:01.318Z,18.85
2023-02-28T07:36:05.779Z,19.01
2023-02-28T07:37:07.585Z,18.72
2023-02-28T07:38:09.924Z,18.77
2023-02-28T07:39:12.238Z,18.82
2023-02-28T07:40:14.737Z,18.77
2023-02-28T07:41:22.156Z,18.94
2023-02-28T07:42:24.925Z,19.02
2023-02-28T07:43:26.838Z,18.85
2023-02-28T07:44:28.671Z,18.79
2023-02-28T07:45:32.701Z,18.73
2023-02-28T07:46:37.213Z,18.80
2023-02-28T07:47:40.124Z,18.74
2023-02-28T07:48:42.415Z,18.79
2023-02-28T07:49:44.267Z,18.96
2023-02-28T07:50:49.168Z,18.83
2023-02-28T07:51:51.008Z,18.78
2023-02-28T07:52:52.893Z,18.76
2023-02-28T07:53:54.930Z,18.82
2023-02-28T07:54:56.714Z,18.64
2023-02-28T07:56:00.421Z,18.91
2023-02-28T07:57:02.311Z,18.70
2023-02-28T07:58:04.136Z,18.81
2023-02-28T07:59:06.087Z,18.80
2023-02-28T08:00:10.747Z,18.90
2023-02-28T08:01:16.028Z,19.03
2023-02-28T08:02:19.492Z,18.79
2023-02-28T08:03:22.837Z,19.02
2023-02-28T08:04:24.643Z,18.87
2023-02-28T08:05:26.560Z,19.01
2023-02-28T08:06:28.514Z,18.83
2023-02-28T08:07:30.402Z,18.72
2023-02-28T08:08:32.446Z,19.00
2023-02-28T08:09:35.414Z,18.89
2023-02-28T08:10:37.587Z,19.01
2023-02-28T08:11:39.532Z,18.87
2023-02-28T08:12:41.421Z,18.69
2023-02-28T08:13:45.017Z,18.74
2023-02-28T08:14:47.364Z,18.99
2023-02-28T08:15:51.975Z,19.00
2023-02-28T08:16:53.899Z,18.70
2023-02-28T08:17:57.283Z,18.41
2023-02-28T08:18:59.140Z,18.84
2023-02-28T08:20:00.945Z,18.99
2023-02-28T08:21:12.365Z,19.00
2023-02-28T08:22:14.966Z,18.95
2023-02-28T08:23:16.965Z,19.00
2023-02-28T08:24:18.772Z,18.98
2023-02-28T08:25:21.195Z,18.85
2023-02-28T08:26:22.978Z,18.79
2023-02-28T08:27:24.792Z,18.71
2023-02-28T08:28:27.499Z,18.98
2023-02-28T08:29:31.220Z,18.64
2023-02-28T08:30:33.009Z,18.66
2023-02-28T08:31:36.638Z,18.76
2023-02-28T08:32:38.668Z,18.83
2023-02-28T08:33:41.179Z,18.93
2023-02-28T08:34:42.976Z,18.99
2023-02-28T08:35:44.879Z,18.98
2023-02-28T08:36:46.965Z,18.98
2023-02-28T08:37:50.138Z,18.77
2023-02-28T08:38:52.421Z,18.72
2023-02-28T08:39:56.375Z,18.71
2023-02-28T08:41:04.107Z,18.85
2023-02-28T08:42:07.729Z,18.99
2023-02-28T08:43:09.976Z,18.99
2023-02-28T08:44:11.879Z,18.73
2023-02-28T08:45:14.838Z,18.74
2023-02-28T08:46:16.756Z,18.66
2023-02-28T08:47:19.261Z,18.70
2023-02-28T08:48:21.152Z,18.96
2023-02-28T08:49:22.999Z,18.80
2023-02-28T08:50:24.952Z,18.69
2023-02-28T08:51:28.057Z,18.67
2023-02-28T08:52:30.384Z,18.78
2023-02-28T08:53:33.222Z,18.94
2023-02-28T08:54:36.105Z,18.80
2023-02-28T08:55:37.904Z,18.68
2023-02-28T08:56:40.871Z,18.69
2023-02-28T08:57:42.672Z,18.77
2023-02-28T08:58:46.076Z,18.63
2023-02-28T08:59:47.942Z,18.94
2023-02-28T09:00:49.973Z,18.66
2023-02-28T09:01:51.845Z,18.85
2023-02-28T09:02:54.465Z,18.80
2023-02-28T09:03:57.750Z,18.96
2023-02-28T09:05:00.126Z,18.80
2023-02-28T09:06:02.342Z,18.96
2023-02-28T09:07:04.222Z,18.70
2023-02-28T09:08:06.183Z,18.95
2023-02-28T09:09:08.508Z,18.82
2023-02-28T09:10:11.006Z,18.82
2023-02-28T09:11:13.569Z,18.93
2023-02-28T09:12:15.436Z,18.93
2023-02-28T09:13:17.258Z,18.93
2023-02-28T09:14:19.024Z,18.66
2023-02-28T09:15:20.824Z,18.86
2023-02-28T09:16:23.025Z,18.66
2023-02-28T09:17:25.202Z,18.94
2023-02-28T09:18:34.894Z,18.82
2023-02-28T09:19:36.707Z,18.88
2023-02-28T09:20:43.329Z,18.77
2023-02-28T09:21:45.182Z,18.85
2023-02-28T09:22:46.981Z,18.93
2023-02-28T09:23:51.245Z,18.45
2023-02-28T09:24:53.075Z,18.77
2023-02-28T09:25:56.122Z,18.85
2023-02-28T09:27:05.009Z,18.70
2023-02-28T09:28:07.503Z,18.68
2023-02-28T09:29:09.579Z,18.96
2023-02-28T09:30:12.044Z,18.78
2023-02-28T09:31:16.886Z,18.94
2023-02-28T09:32:19.153Z,18.77
2023-02-28T09:33:22.746Z,18.95
2023-02-28T09:34:24.705Z,18.89
2023-02-28T09:35:27.758Z,18.64
2023-02-28T09:36:41.816Z,18.75
2023-02-28T09:37:46.618Z,18.86
2023-02-28T09:38:49.712Z,18.99
2023-02-28T09:39:51.990Z,18.99
2023-02-28T09:41:05.709Z,18.87
2023-02-28T09:42:15.191Z,18.83
2023-02-28T09:43:18.918Z,19.02
2023-02-28T09:44:38.603Z,18.87
2023-02-28T09:45:43.935Z,18.91
2023-02-28T09:46:55.352Z,18.78
2023-02-28T09:48:05.353Z,19.04
2023-02-28T09:49:19.815Z,18.92
2023-02-28T09:50:27.842Z,19.06
2023-02-28T09:51:39.165Z,19.05
2023-02-28T09:52:41.611Z,19.06
2023-02-28T09:53:45.756Z,18.83
2023-02-28T09:54:49.708Z,19.05
2023-02-28T09:56:10.177Z,19.02
2023-02-28T09:57:19.712Z,19.07
2023-02-28T09:58:41.767Z,19.11
2023-02-28T10:00:00.832Z,19.00
2023-02-28T10:01:21.405Z,19.13
2023-02-28T10:02:50.740Z,19.14
2023-02-28T10:04:00.023Z,18.97
2023-02-28T10:05:27.778Z,19.16
2023-02-28T10:06:51.324Z,19.18
2023-02-28T10:07:56.136Z,19.14
2023-02-28T10:09:10.415Z,18.90
2023-02-28T10:10:35.972Z,19.14
2023-02-28T10:11:40.811Z,19.02
2023-02-28T10:12:46.703Z,19.10
2023-02-28T10:13:52.264Z,19.07
2023-02-28T10:14:56.274Z,19.06
2023-02-28T10:16:06.778Z,19.06
2023-02-28T10:17:17.920Z,18.80
2023-02-28T10:18:25.796Z,19.09
2023-02-28T10:19:49.253Z,19.08
2023-02-28T10:20:52.766Z,18.98
2023-02-28T10:22:00.813Z,19.10
2023-02-28T10:23:17.658Z,19.11
2023-02-28T10:24:49.353Z,19.17
2023-02-28T10:26:01.121Z,19.19
2023-02-28T10:27:13.280Z,18.94
2023-02-28T10:28:17.656Z,19.05
2023-02-28T10:29:19.445Z,18.89
2023-02-28T10:30:21.453Z,18.97
2023-02-28T10:31:26.024Z,19.12
2023-02-28T10:32:32.416Z,19.12
2023-02-28T10:33:36.557Z,18.90
2023-02-28T10:34:38.368Z,19.15
2023-02-28T10:35:40.272Z,19.04
2023-02-28T10:36:44.820Z,19.15
2023-02-28T10:37:49.837Z,19.09
2023-02-28T10:38:51.806Z,19.15
2023-02-28T10:39:54.168Z,19.00
2023-02-28T10:41:10.933Z,18.79
2023-02-28T10:42:27.156Z,18.95
2023-02-28T10:43:29.341Z,19.08
2023-02-28T10:44:31.214Z,19.15
2023-02-28T10:45:38.259Z,19.19
2023-02-28T10:46:42.131Z,19.03
2023-02-28T10:47:57.087Z,19.22
2023-02-28T10:49:07.769Z,19.23
2023-02-28T10:50:28.596Z,19.29
2023-02-28T10:51:38.260Z,19.26
2023-02-28T10:52:41.884Z,19.27
2023-02-28T10:54:02.882Z,19.26
2023-02-28T10:55:17.278Z,19.25
2023-02-28T10:56:24.374Z,19.19
2023-02-28T10:57:26.288Z,19.06
2023-02-28T10:58:43.163Z,18.83
2023-02-28T10:59:45.480Z,19.28
2023-02-28T11:00:48.301Z,19.05
2023-02-28T11:01:51.755Z,19.07
2023-02-28T11:02:53.631Z,19.25
2023-02-28T11:03:56.489Z,19.02
2023-02-28T11:04:58.322Z,19.06
2023-02-28T11:06:07.745Z,19.24
2023-02-28T11:07:24.448Z,19.28
2023-02-28T11:08:27.699Z,19.14
2023-02-28T11:09:39.776Z,18.97
2023-02-28T11:10:47.266Z,19.15
2023-02-28T11:11:50.376Z,19.06
2023-02-28T11:12:57.659Z,19.28
2023-02-28T11:14:21.986Z,19.24
2023-02-28T11:15:36.731Z,19.18
2023-02-28T11:16:39.289Z,19.12
2023-02-28T11:17:43.320Z,18.82
2023-02-28T11:18:54.309Z,19.17
2023-02-28T11:20:04.375Z,19.05
2023-02-28T11:21:06.955Z,19.05
2023-02-28T11:22:09.354Z,19.10
2023-02-28T11:23:15.027Z,19.28
2023-02-28T11:24:29.956Z,19.30
2023-02-28T11:25:35.850Z,19.30
2023-02-28T11:26:40.808Z,18.85
2023-02-28T11:27:50.578Z,19.29
2023-02-28T11:29:09.341Z,19.32
2023-02-28T11:30:25.692Z,19.36
2023-02-28T11:31:30.900Z,19.06
2023-02-28T11:32:33.448Z,19.10
2023-02-28T11:33:47.157Z,19.32
2023-02-28T11:35:10.414Z,19.34
2023-02-28T11:36:35.207Z,19.36
2023-02-28T11:37:38.124Z,19.28
2023-02-28T11:38:40.046Z,19.06
2023-02-28T11:39:42.667Z,19.15
2023-02-28T11:40:59.259Z,18.88
2023-02-28T11:42:20.878Z,19.21
2023-02-28T11:43:50.183Z,19.36
2023-02-28T11:45:04.478Z,19.40
2023-02-28T11:46:29.375Z,19.38
2023-02-28T11:47:40.920Z,19.12
2023-02-28T11:49:03.569Z,19.11
2023-02-28T11:50:18.766Z,19.09
2023-02-28T11:51:35.389Z,19.40
2023-02-28T11:53:02.221Z,19.25
2023-02-28T11:54:26.445Z,19.18
2023-02-28T11:55:37.649Z,19.40
2023-02-28T11:56:47.847Z,18.77
2023-02-28T11:57:51.474Z,19.36
2023-02-28T11:59:03.075Z,19.31
2023-02-28T12:00:16.731Z,19.31
2023-02-28T12:02:07.341Z,19.36
2023-02-28T12:03:37.039Z,19.40
2023-02-28T12:05:11.031Z,19.42
2023-02-28T12:06:12.841Z,19.41
2023-02-28T12:07:31.316Z,19.08
2023-02-28T12:08:44.933Z,19.35
2023-02-28T12:10:06.628Z,19.36
2023-02-28T12:11:33.362Z,19.34
2023-02-28T12:12:38.072Z,19.35
2023-02-28T12:14:06.576Z,19.02
2023-02-28T12:15:40.215Z,19.38
2023-02-28T12:17:03.322Z,19.37
2023-02-28T12:18:13.754Z,19.38
2023-02-28T12:19:26.181Z,19.34
2023-02-28T12:21:02.799Z,19.37
2023-02-28T12:22:31.649Z,19.40
2023-02-28T12:23:49.047Z,19.38
2023-02-28T12:25:15.084Z,19.37
2023-02-28T12:26:27.803Z,18.92
2023-02-28T12:27:33.389Z,19.07
2023-02-28T12:29:01.342Z,19.17
2023-02-28T12:30:17.401Z,19.38
2023-02-28T12:31:25.817Z,19.12
2023-02-28T12:32:42.018Z,19.07
2023-02-28T12:33:49.000Z,19.34
2023-02-28T12:34:56.207Z,19.18
2023-02-28T12:36:03.471Z,19.13
2023-02-28T12:37:11.523Z,18.99
2023-02-28T12:38:23.219Z,19.32
2023-02-28T12:39:36.583Z,19.32
2023-02-28T12:40:53.662Z,19.10
2023-02-28T12:42:03.696Z,19.10
2023-02-28T12:43:08.932Z,19.15
2023-02-28T12:44:35.467Z,19.38
2023-02-28T12:45:49.776Z,19.24
2023-02-28T12:46:55.911Z,19.28
2023-02-28T12:48:11.736Z,19.28
2023-02-28T12:50:01.119Z,19.40
2023-02-28T12:51:04.215Z,19.42
2023-02-28T12:52:07.489Z,19.37
2023-02-28T12:53:21.168Z,19.34
2023-02-28T12:54:31.366Z,19.34
2023-02-28T12:55:45.001Z,19.32
2023-02-28T12:56:52.043Z,19.33
2023-02-28T12:57:59.832Z,19.32
2023-02-28T12:59:16.372Z,19.33
2023-02-28T13:00:23.173Z,19.32
2023-02-28T13:01:33.547Z,19.22
2023-02-28T13:02:41.451Z,19.31
2023-02-28T13:03:43.322Z,19.31
2023-02-28T13:05:26.340Z,19.27
2023-02-28T13:06:36.930Z,19.35
2023-02-28T13:08:15.941Z,19.37
2023-02-28T13:09:19.461Z,19.38
2023-02-28T13:10:21.811Z,19.19
2023-02-28T13:11:29.240Z,19.29
2023-02-28T13:12:31.218Z,19.06
2023-02-28T13:13:33.455Z,19.27
2023-02-28T13:14:35.225Z,19.26
2023-02-28T13:15:41.654Z,19.25
2023-02-28T13:17:02.962Z,19.21
2023-02-28T13:18:04.883Z,19.06
2023-02-28T13:19:12.095Z,19.28
2023-02-28T13:20:24.078Z,18.86
2023-02-28T13:21:30.110Z,19.29
2023-02-28T13:23:02.626Z,19.36
2023-02-28T13:24:07.143Z,19.14
2023-02-28T13:25:23.867Z,19.35
2023-02-28T13:26:51.655Z,19.19
2023-02-28T13:27:58.120Z,18.78
2023-02-28T13:29:29.428Z,19.16
2023-02-28T13:30:56.847Z,19.40
2023-02-28T13:32:07.975Z,19.36
2023-02-28T13:33:49.614Z,19.24
2023-02-28T13:34:51.439Z,19.39
2023-02-28T13:36:14.595Z,19.36
2023-02-28T13:37:19.258Z,19.33
2023-02-28T13:38:33.982Z,18.90
2023-02-28T13:39:36.385Z,19.30
2023-02-28T13:40:39.235Z,19.04
2023-02-28T13:41:45.712Z,19.20
2023-02-28T13:42:50.695Z,18.99
2023-02-28T13:44:11.864Z,19.29
2023-02-28T13:45:13.682Z,19.29
2023-02-28T13:46:15.578Z,19.25
2023-02-28T13:47:23.013Z,18.90
2023-02-28T13:48:29.940Z,19.23
2023-02-28T13:49:37.797Z,18.45
2023-02-28T13:50:41.235Z,18.82
2023-02-28T13:51:54.450Z,19.24
2023-02-28T13:53:16.406Z,19.01
2023-02-28T13:54:21.842Z,19.27
2023-02-28T13:55:36.146Z,19.26
2023-02-28T13:56:50.611Z,18.97
2023-02-28T13:58:21.166Z,19.14
2023-02-28T13:59:35.092Z,19.30
2023-02-28T14:00:46.812Z,19.29
2023-02-28T14:02:05.407Z,19.28
2023-02-28T14:03:34.767Z,19.31
2023-02-28T14:05:01.680Z,19.08
2023-02-28T14:06:34.638Z,19.36
2023-02-28T14:07:50.273Z,19.32
2023-02-28T14:09:29.090Z,19.34
2023-02-28T14:10:44.261Z,19.31
2023-02-28T14:11:47.157Z,18.91
2023-02-28T14:13:00.978Z,19.22
2023-02-28T14:14:04.368Z,18.95
2023-02-28T14:15:39.297Z,19.11
2023-02-28T14:16:45.863Z,19.03
2023-02-28T14:17:51.415Z,19.17
2023-02-28T14:19:27.212Z,19.26
2023-02-28T14:20:32.385Z,19.13
2023-02-28T14:21:36.652Z,18.95
2023-02-28T14:23:00.098Z,18.99
2023-02-28T14:24:41.649Z,19.25
2023-02-28T14:26:03.530Z,19.07
2023-02-28T14:27:10.929Z,19.26
2023-02-28T14:28:30.960Z,19.23
2023-02-28T14:29:56.127Z,19.23